Time;durP1;ratioP1;P1;durP2;ratioP2;P2;SDS_P1;SDS_P2;PMS_P1;PMS_P2;Temp;Humidity;BMP_temperature;BMP_pressure;BME280_temperature;BME280_humidity;BME280_pressure;Samples;Min_cycle;Max_cycle;Signal;HPM_P1;HPM_P2
2021/12/10 00:01:27;;;;;;;;;0.50;0.50;;;;;;;;5047756;28;49707;-72
2021/12/10 00:03:53;;;;;;;;;1.00;1.00;;;;;;;;5047776;28;49744;-72
2021/12/10 00:06:20;;;;;;;;;0.00;0.00;;;;;;;;5047450;28;49581;-71
2021/12/10 00:08:49;;;;;;;;;0.00;0.00;;;;;;;;5047399;28;50741;-72
2021/12/10 00:11:26;;;;;;;;;0.25;0.25;;;;;;;;5047491;28;49799;-72
2021/12/10 00:13:51;;;;;;;;;0.00;0.00;;;;;;;;5047629;28;49804;-71
2021/12/10 00:16:18;;;;;;;;;0.00;0.00;;;;;;;;5047816;28;49894;-71
2021/12/10 00:18:50;;;;;;;;;0.75;0.75;;;;;;;;5045844;28;52617;-71
2021/12/10 00:21:16;;;;;;;;;0.00;0.00;;;;;;;;5047127;28;49807;-71
2021/12/10 00:23:45;;;;;;;;;0.00;0.00;;;;;;;;5047440;28;50109;-71
2021/12/10 00:26:11;;;;;;;;;0.00;0.00;;;;;;;;5047340;28;49921;-72
2021/12/10 00:28:39;;;;;;;;;0.00;0.00;;;;;;;;5046794;28;50013;-72
2021/12/10 00:33:49;;;;;;;;;0.75;0.75;;;;;;;;5047250;28;49717;-72
2021/12/10 00:36:14;;;;;;;;;0.00;0.00;;;;;;;;5047006;28;49713;-72
2021/12/10 00:38:40;;;;;;;;;1.50;1.00;;;;;;;;5046861;28;50489;-71
2021/12/10 00:41:06;;;;;;;;;0.50;0.00;;;;;;;;5045553;28;49626;-71
2021/12/10 00:43:31;;;;;;;;;0.00;0.00;;;;;;;;5047042;28;50034;-71
2021/12/10 00:45:56;;;;;;;;;0.00;0.00;;;;;;;;5045652;28;49678;-72
2021/12/10 00:48:21;;;;;;;;;0.25;0.25;;;;;;;;5046605;28;50773;-74
2021/12/10 00:50:51;;;;;;;;;0.00;0.00;;;;;;;;5046691;28;49656;-74
2021/12/10 00:53:16;;;;;;;;;2.75;0.00;;;;;;;;5047155;28;49587;-74
2021/12/10 00:55:42;;;;;;;;;0.00;0.00;;;;;;;;5045661;28;50011;-74
2021/12/10 00:58:07;;;;;;;;;0.00;0.00;;;;;;;;5046719;28;49789;-73
2021/12/10 01:00:38;;;;;;;;;0.00;0.00;;;;;;;;5046729;28;49629;-74
2021/12/10 01:03:04;;;;;;;;;0.75;0.75;;;;;;;;5046746;28;49892;-74
2021/12/10 01:05:29;;;;;;;;;1.00;0.00;;;;;;;;5046588;28;49717;-74
2021/12/10 01:07:55;;;;;;;;;0.00;0.00;;;;;;;;5047131;28;50780;-75
2021/12/10 01:10:25;;;;;;;;;1.00;0.00;;;;;;;;5048736;28;49683;-75
2021/12/10 01:12:52;;;;;;;;;0.00;0.00;;;;;;;;5049323;28;49896;-74
2021/12/10 01:26:24;;;;;;;;;0.00;0.00;;;;;;;;5050011;28;49724;-73
2021/12/10 01:28:54;;;;;;;;;0.00;0.00;;;;;;;;5049475;28;49827;-74
2021/12/10 01:31:20;;;;;;;;;0.00;0.00;;;;;;;;5049783;28;49566;-75
2021/12/10 01:33:46;;;;;;;;;1.25;1.00;;;;;;;;5049678;28;49738;-74
2021/12/10 01:36:11;;;;;;;;;0.00;0.00;;;;;;;;5049429;28;49883;-75
2021/12/10 01:38:39;;;;;;;;;0.00;0.00;;;;;;;;5047853;28;50600;-74
2021/12/10 01:41:08;;;;;;;;;0.00;0.00;;;;;;;;5049523;28;49809;-73
2021/12/10 01:43:35;;;;;;;;;0.00;0.00;;;;;;;;5049325;28;50401;-73
2021/12/10 01:46:07;;;;;;;;;1.00;1.00;;;;;;;;5049601;28;49835;-74
2021/12/10 01:48:34;;;;;;;;;1.25;0.00;;;;;;;;5049262;28;50685;-75
2021/12/10 01:51:00;;;;;;;;;1.00;0.25;;;;;;;;5047207;28;49782;-74
2021/12/10 01:53:27;;;;;;;;;0.00;0.00;;;;;;;;5049383;28;49699;-73
2021/12/10 01:55:54;;;;;;;;;0.00;0.00;;;;;;;;5049500;28;49748;-72
2021/12/10 01:58:21;;;;;;;;;0.00;0.00;;;;;;;;5049132;28;50611;-72
2021/12/10 02:00:49;;;;;;;;;0.00;0.00;;;;;;;;5049357;28;49696;-71
2021/12/10 02:03:14;;;;;;;;;0.00;0.00;;;;;;;;5049400;28;49728;-71
2021/12/10 02:05:40;;;;;;;;;0.00;0.00;;;;;;;;5049091;28;49856;-72
2021/12/10 02:08:05;;;;;;;;;5.00;1.00;;;;;;;;5048953;28;50656;-72
2021/12/10 02:10:30;;;;;;;;;0.75;0.00;;;;;;;;5049114;28;49726;-72
2021/12/10 02:12:57;;;;;;;;;1.00;1.00;;;;;;;;5049131;28;49749;-73
2021/12/10 02:15:26;;;;;;;;;0.00;0.00;;;;;;;;5049375;28;49649;-72
2021/12/10 02:17:52;;;;;;;;;0.25;0.25;;;;;;;;5048856;28;50395;-72
2021/12/10 02:20:21;;;;;;;;;0.00;0.00;;;;;;;;5048024;28;49832;-72
2021/12/10 02:22:47;;;;;;;;;0.00;0.00;;;;;;;;5049045;28;49753;-72
2021/12/10 02:25:13;;;;;;;;;0.25;0.25;;;;;;;;5049191;28;49873;-72
2021/12/10 02:27:39;;;;;;;;;0.00;0.00;;;;;;;;5048556;28;49757;-72
2021/12/10 02:30:06;;;;;;;;;0.00;0.00;;;;;;;;5048685;28;49642;-72
2021/12/10 02:32:31;;;;;;;;;0.00;0.00;;;;;;;;5047356;28;50011;-72
2021/12/10 02:34:57;;;;;;;;;0.00;0.00;;;;;;;;5048915;28;49641;-72
2021/12/10 02:37:23;;;;;;;;;0.00;0.00;;;;;;;;5048384;28;51961;-72
2021/12/10 02:39:48;;;;;;;;;0.00;0.00;;;;;;;;5048926;28;49675;-71
2021/12/10 02:42:13;;;;;;;;;1.00;1.00;;;;;;;;5048850;28;49642;-72
2021/12/10 02:44:39;;;;;;;;;1.00;0.75;;;;;;;;5048894;28;49870;-73
2021/12/10 02:47:04;;;;;;;;;0.00;0.00;;;;;;;;5048432;28;49839;-72
2021/12/10 02:49:30;;;;;;;;;0.00;0.00;;;;;;;;5048604;28;49903;-72
2021/12/10 02:51:56;;;;;;;;;0.00;0.00;;;;;;;;5047062;28;49801;-72
2021/12/10 02:54:31;;;;;;;;;0.00;0.00;;;;;;;;5047465;28;49573;-71
2021/12/10 02:56:57;;;;;;;;;0.00;0.00;;;;;;;;5048449;28;50466;-71
2021/12/10 02:59:22;;;;;;;;;0.00;0.00;;;;;;;;5048644;28;49688;-72
2021/12/10 03:01:49;;;;;;;;;1.00;1.00;;;;;;;;5048467;28;49693;-72
2021/12/10 03:04:15;;;;;;;;;0.00;0.00;;;;;;;;5047460;28;50225;-71
2021/12/10 03:06:44;;;;;;;;;0.00;0.00;;;;;;;;5048008;28;50360;-73
2021/12/10 03:09:09;;;;;;;;;0.00;0.00;;;;;;;;5048407;28;49679;-71
2021/12/10 03:11:36;;;;;;;;;0.00;0.00;;;;;;;;5048550;28;49735;-72
2021/12/10 03:14:07;;;;;;;;;0.00;0.00;;;;;;;;5048592;28;49937;-71
2021/12/10 03:16:33;;;;;;;;;0.00;0.00;;;;;;;;5048217;28;50322;-72
2021/12/10 03:18:58;;;;;;;;;0.00;0.00;;;;;;;;5048401;28;49828;-72
2021/12/10 03:21:23;;;;;;;;;0.00;0.00;;;;;;;;5048249;28;49931;-72
2021/12/10 03:23:49;;;;;;;;;0.00;0.00;;;;;;;;5048524;28;49486;-72
2021/12/10 03:26:16;;;;;;;;;0.00;0.00;;;;;;;;5048127;28;50450;-72
2021/12/10 03:28:42;;;;;;;;;0.00;0.00;;;;;;;;5047663;28;49614;-73
2021/12/10 03:31:07;;;;;;;;;0.00;0.00;;;;;;;;5046791;28;49693;-73
2021/12/10 03:33:33;;;;;;;;;0.00;0.00;;;;;;;;5048040;28;49712;-75
2021/12/10 03:36:02;;;;;;;;;1.00;0.00;;;;;;;;5047742;28;49702;-75
2021/12/10 03:38:27;;;;;;;;;0.00;0.00;;;;;;;;5047932;28;49685;-72
2021/12/10 03:40:53;;;;;;;;;0.00;0.00;;;;;;;;5047992;28;49696;-74
2021/12/10 03:43:19;;;;;;;;;0.00;0.00;;;;;;;;5048283;28;49630;-73
2021/12/10 03:45:46;;;;;;;;;0.00;0.00;;;;;;;;5047902;28;49891;-73
2021/12/10 03:48:13;;;;;;;;;0.00;0.00;;;;;;;;5047912;28;49854;-75
2021/12/10 03:50:39;;;;;;;;;0.00;0.00;;;;;;;;5047715;28;49858;-73
2021/12/10 03:53:06;;;;;;;;;0.00;0.00;;;;;;;;5048076;28;49627;-75
2021/12/10 03:55:32;;;;;;;;;0.00;0.00;;;;;;;;5047607;28;51536;-74
2021/12/10 03:57:57;;;;;;;;;0.00;0.00;;;;;;;;5047651;28;49794;-72
2021/12/10 04:00:24;;;;;;;;;0.00;0.00;;;;;;;;5046326;28;49700;-72
2021/12/10 04:02:50;;;;;;;;;0.50;0.00;;;;;;;;5047912;28;49801;-72
2021/12/10 04:05:15;;;;;;;;;0.00;0.00;;;;;;;;5047110;28;49823;-72
2021/12/10 04:07:41;;;;;;;;;1.25;0.00;;;;;;;;5045888;28;49611;-73
2021/12/10 04:10:07;;;;;;;;;0.00;0.00;;;;;;;;5047522;28;49643;-70
2021/12/10 04:12:32;;;;;;;;;2.00;1.00;;;;;;;;5047551;28;49950;-72
2021/12/10 04:14:58;;;;;;;;;1.25;1.25;;;;;;;;5047399;28;50498;-72
2021/12/10 04:17:23;;;;;;;;;1.00;1.00;;;;;;;;5045952;28;49778;-72
2021/12/10 04:19:50;;;;;;;;;1.25;1.00;;;;;;;;5047298;28;50148;-72
2021/12/10 04:22:16;;;;;;;;;0.00;0.00;;;;;;;;5047242;28;49636;-73
2021/12/10 04:24:41;;;;;;;;;1.25;0.75;;;;;;;;5046863;28;50416;-72
2021/12/10 04:27:08;;;;;;;;;1.50;1.00;;;;;;;;5046923;28;49702;-73
2021/12/10 04:29:34;;;;;;;;;0.00;0.00;;;;;;;;5045850;28;49803;-72
2021/12/10 04:32:00;;;;;;;;;2.50;1.00;;;;;;;;5047545;28;49914;-72
2021/12/10 04:34:26;;;;;;;;;0.75;0.75;;;;;;;;5047105;28;49616;-72
2021/12/10 04:36:52;;;;;;;;;1.75;1.50;;;;;;;;5046806;28;49639;-72
2021/12/10 04:39:18;;;;;;;;;2.00;2.00;;;;;;;;5047226;28;50039;-72
2021/12/10 04:41:43;;;;;;;;;1.50;1.50;;;;;;;;5047062;28;49626;-72
2021/12/10 04:44:09;;;;;;;;;4.00;2.00;;;;;;;;5049123;28;49867;-72
2021/12/10 04:46:34;;;;;;;;;2.25;2.25;;;;;;;;5050055;28;49842;-72
2021/12/10 04:49:01;;;;;;;;;3.00;1.50;;;;;;;;5050328;28;49843;-72
2021/12/10 04:51:29;;;;;;;;;2.50;2.00;;;;;;;;5050137;28;49606;-72
2021/12/10 04:53:54;;;;;;;;;7.00;3.25;;;;;;;;5049864;28;50699;-72
2021/12/10 04:56:20;;;;;;;;;5.00;3.00;;;;;;;;5049857;28;49659;-70
2021/12/10 04:58:45;;;;;;;;;2.00;2.00;;;;;;;;5049880;28;49614;-71
2021/12/10 05:01:11;;;;;;;;;2.00;2.00;;;;;;;;5049968;28;49921;-72
2021/12/10 05:03:36;;;;;;;;;5.75;2.75;;;;;;;;5049630;28;49803;-73
2021/12/10 05:06:03;;;;;;;;;1.75;1.75;;;;;;;;5049748;28;49076;-71
2021/12/10 05:08:33;;;;;;;;;15.25;6.75;;;;;;;;5049701;28;49690;-73
2021/12/10 05:10:58;;;;;;;;;5.25;3.50;;;;;;;;5049967;28;49770;-71
2021/12/10 05:13:24;;;;;;;;;2.25;2.25;;;;;;;;5049605;28;51084;-72
2021/12/10 05:15:56;;;;;;;;;7.00;2.50;;;;;;;;5049604;28;50361;-73
2021/12/10 05:18:21;;;;;;;;;12.75;6.75;;;;;;;;5049839;28;49826;-71
2021/12/10 05:20:48;;;;;;;;;2.75;2.75;;;;;;;;5049697;28;49817;-71
2021/12/10 05:23:14;;;;;;;;;2.00;2.00;;;;;;;;5049400;28;49814;-72
2021/12/10 05:25:39;;;;;;;;;6.00;2.50;;;;;;;;5049529;28;50342;-71
2021/12/10 05:28:05;;;;;;;;;4.50;3.75;;;;;;;;5049489;28;49753;-72
2021/12/10 05:30:30;;;;;;;;;2.25;2.25;;;;;;;;5049746;28;49672;-72
2021/12/10 05:33:01;;;;;;;;;3.75;1.25;;;;;;;;5049235;28;50391;-72
2021/12/10 05:35:26;;;;;;;;;1.75;1.75;;;;;;;;5049102;28;49750;-72
2021/12/10 05:37:52;;;;;;;;;2.00;1.25;;;;;;;;5049413;28;49703;-74
2021/12/10 05:40:17;;;;;;;;;2.25;2.00;;;;;;;;5052299;28;49631;-73
2021/12/10 05:42:44;;;;;;;;;3.50;1.00;;;;;;;;5049336;28;50254;-74
2021/12/10 05:45:10;;;;;;;;;1.50;1.00;;;;;;;;5049589;28;49582;-74
2021/12/10 05:47:35;;;;;;;;;0.75;0.75;;;;;;;;5049378;28;49630;-74
2021/12/10 05:50:01;;;;;;;;;2.50;2.00;;;;;;;;5049289;28;49573;-72
2021/12/10 05:52:26;;;;;;;;;2.75;2.25;;;;;;;;5049214;28;50360;-74
2021/12/10 05:54:52;;;;;;;;;1.25;1.00;;;;;;;;5047015;28;49610;-74
2021/12/10 05:57:18;;;;;;;;;1.00;1.00;;;;;;;;5049336;28;49707;-74
2021/12/10 05:59:43;;;;;;;;;1.25;1.25;;;;;;;;5049637;28;49924;-73
2021/12/10 06:02:08;;;;;;;;;3.25;2.00;;;;;;;;5049187;28;49676;-71
2021/12/10 06:04:34;;;;;;;;;1.75;1.75;;;;;;;;5049254;28;49719;-71
2021/12/10 06:07:00;;;;;;;;;1.75;1.75;;;;;;;;5048745;28;49775;-71
2021/12/10 06:09:26;;;;;;;;;1.00;1.00;;;;;;;;5049426;28;49918;-73
2021/12/10 06:11:51;;;;;;;;;1.00;1.00;;;;;;;;5048947;28;49694;-72
2021/12/10 06:14:16;;;;;;;;;2.75;1.00;;;;;;;;5048717;28;49601;-75
2021/12/10 06:16:42;;;;;;;;;3.50;2.00;;;;;;;;5048991;28;49655;-73
2021/12/10 06:19:07;;;;;;;;;2.00;2.00;;;;;;;;5049338;28;49726;-73
2021/12/10 06:21:33;;;;;;;;;4.50;1.75;;;;;;;;5048675;28;49848;-74
2021/12/10 06:23:59;;;;;;;;;2.00;2.00;;;;;;;;5048980;28;49899;-75
2021/12/10 06:26:24;;;;;;;;;5.00;2.50;;;;;;;;5048776;28;49746;-75
2021/12/10 06:28:49;;;;;;;;;3.50;2.25;;;;;;;;5048902;28;49799;-75
2021/12/10 06:31:16;;;;;;;;;1.50;1.50;;;;;;;;5048409;28;50643;-75
2021/12/10 06:33:41;;;;;;;;;3.00;3.00;;;;;;;;5048874;28;49780;-72
2021/12/10 06:36:06;;;;;;;;;3.50;2.00;;;;;;;;5048942;28;49557;-74
2021/12/10 06:38:32;;;;;;;;;1.00;1.00;;;;;;;;5049055;28;49780;-74
2021/12/10 06:40:58;;;;;;;;;3.00;1.25;;;;;;;;5048732;28;49620;-73
2021/12/10 06:43:24;;;;;;;;;2.25;2.00;;;;;;;;5049041;28;49894;-75
2021/12/10 06:45:51;;;;;;;;;1.75;1.75;;;;;;;;5048899;28;49912;-74
2021/12/10 06:48:17;;;;;;;;;2.00;1.00;;;;;;;;5048863;28;49893;-74
2021/12/10 06:50:51;;;;;;;;;4.00;2.25;;;;;;;;5048308;28;50647;-75
2021/12/10 06:53:19;;;;;;;;;1.00;1.00;;;;;;;;5048611;28;49640;-74
2021/12/10 06:55:44;;;;;;;;;4.25;2.75;;;;;;;;5048578;28;49694;-74
2021/12/10 06:58:09;;;;;;;;;1.50;0.50;;;;;;;;5047533;28;50022;-73
2021/12/10 07:00:46;;;;;;;;;6.00;2.00;;;;;;;;5048350;28;49853;-74
2021/12/10 07:03:13;;;;;;;;;1.75;1.00;;;;;;;;5051293;28;49715;-78
2021/12/10 07:05:39;;;;;;;;;2.50;1.00;;;;;;;;5047788;28;49879;-74
2021/12/10 07:08:04;;;;;;;;;2.00;2.00;;;;;;;;5048800;28;49820;-76
2021/12/10 07:10:29;;;;;;;;;1.25;0.00;;;;;;;;5049505;28;51760;-78
2021/12/10 07:12:55;;;;;;;;;1.50;1.50;;;;;;;;5052111;28;49799;-78
2021/12/10 07:15:20;;;;;;;;;2.50;1.50;;;;;;;;5048977;28;49677;-73
2021/12/10 07:17:47;;;;;;;;;3.75;1.00;;;;;;;;5048439;28;50055;-74
2021/12/10 07:20:13;;;;;;;;;1.50;1.50;;;;;;;;5048634;28;49555;-76
2021/12/10 07:22:39;;;;;;;;;0.50;0.50;;;;;;;;5048427;28;49874;-73
2021/12/10 07:25:05;;;;;;;;;1.00;1.00;;;;;;;;5048261;28;49685;-68
2021/12/10 07:27:30;;;;;;;;;1.00;1.00;;;;;;;;5048151;28;50208;-69
2021/12/10 07:29:56;;;;;;;;;2.75;1.00;;;;;;;;5048100;28;49832;-69
2021/12/10 07:32:21;;;;;;;;;0.50;0.50;;;;;;;;5048234;28;49663;-71
2021/12/10 07:34:46;;;;;;;;;0.00;0.00;;;;;;;;5050054;28;49613;-68
2021/12/10 07:37:11;;;;;;;;;0.00;0.00;;;;;;;;5048408;28;49817;-72
2021/12/10 07:39:37;;;;;;;;;3.00;1.75;;;;;;;;5046490;28;51716;-67
2021/12/10 07:42:04;;;;;;;;;2.75;0.75;;;;;;;;5041787;27;49987;-71
2021/12/10 07:44:29;;;;;;;;;1.75;0.00;;;;;;;;5047231;28;49857;-73
2021/12/10 07:46:55;;;;;;;;;1.25;0.00;;;;;;;;5048137;27;49827;-71
2021/12/10 07:49:28;;;;;;;;;1.50;0.75;;;;;;;;5060387;28;49606;-74
2021/12/10 07:51:54;;;;;;;;;0.75;0.75;;;;;;;;5051705;28;49827;-77
2021/12/10 07:54:20;;;;;;;;;0.00;0.00;;;;;;;;5047937;27;49811;-73
2021/12/10 07:56:45;;;;;;;;;1.25;1.25;;;;;;;;5047881;28;49919;-73
2021/12/10 07:59:10;;;;;;;;;0.00;0.00;;;;;;;;5030037;28;51770;-71
2021/12/10 08:01:35;;;;;;;;;1.00;0.00;;;;;;;;5046557;28;49813;-70
2021/12/10 08:04:02;;;;;;;;;1.00;0.75;;;;;;;;5049198;28;49978;-72
2021/12/10 08:06:29;;;;;;;;;0.50;0.00;;;;;;;;5045913;28;49979;-64
2021/12/10 08:08:54;;;;;;;;;1.00;0.00;;;;;;;;5046210;28;49726;-66
2021/12/10 08:11:20;;;;;;;;;1.25;0.25;;;;;;;;5045786;28;49645;-65
2021/12/10 08:13:46;;;;;;;;;0.00;0.00;;;;;;;;5046774;28;49866;-65
2021/12/10 08:16:11;;;;;;;;;1.00;1.00;;;;;;;;5046521;28;49747;-65
2021/12/10 08:18:36;;;;;;;;;1.00;1.00;;;;;;;;5047751;27;50201;-64
2021/12/10 08:21:02;;;;;;;;;1.75;1.00;;;;;;;;5048549;28;49975;-70
2021/12/10 08:23:28;;;;;;;;;0.50;0.00;;;;;;;;5014217;28;49767;-70
2021/12/10 08:25:53;;;;;;;;;1.00;0.00;;;;;;;;5048743;28;49807;-71
2021/12/10 08:28:22;;;;;;;;;5.75;2.00;;;;;;;;5030234;28;51388;-70
2021/12/10 08:30:49;;;;;;;;;1.75;0.75;;;;;;;;5048471;28;50021;-73
2021/12/10 08:33:15;;;;;;;;;2.00;2.00;;;;;;;;5046591;27;49872;-70
2021/12/10 08:35:42;;;;;;;;;1.00;1.00;;;;;;;;5049086;27;49760;-73
2021/12/10 08:38:08;;;;;;;;;2.00;1.00;;;;;;;;5050020;28;49711;-73
2021/12/10 08:40:36;;;;;;;;;1.00;1.00;;;;;;;;5050149;28;49675;-70
2021/12/10 08:43:01;;;;;;;;;1.00;1.00;;;;;;;;5032053;28;49875;-72
2021/12/10 08:45:27;;;;;;;;;2.00;2.00;;;;;;;;5050544;28;49796;-72
2021/12/10 08:47:53;;;;;;;;;0.00;0.00;;;;;;;;5049901;28;49826;-71
2021/12/10 08:50:23;;;;;;;;;2.00;0.50;;;;;;;;5050231;28;49857;-75
2021/12/10 08:52:49;;;;;;;;;0.00;0.00;;;;;;;;5050359;28;49798;-80
2021/12/10 08:55:17;;;;;;;;;0.50;0.50;;;;;;;;5050307;28;49729;-78
2021/12/10 08:57:43;;;;;;;;;1.00;0.50;;;;;;;;5032250;28;50625;-76
2021/12/10 09:00:08;;;;;;;;;2.50;2.00;;;;;;;;5050539;28;49690;-75
2021/12/10 09:02:36;;;;;;;;;1.00;0.25;;;;;;;;5050429;28;49589;-72
2021/12/10 09:05:01;;;;;;;;;1.00;1.00;;;;;;;;5050401;28;49573;-78
2021/12/10 09:07:26;;;;;;;;;2.25;0.75;;;;;;;;5050505;28;49758;-72
2021/12/10 09:09:51;;;;;;;;;0.50;0.50;;;;;;;;5050279;28;49830;-77
2021/12/10 09:12:19;;;;;;;;;3.00;1.25;;;;;;;;5050109;28;49741;-72
2021/12/10 09:14:48;;;;;;;;;1.00;1.00;;;;;;;;5050450;28;49755;-73
2021/12/10 09:17:17;;;;;;;;;2.00;0.00;;;;;;;;5049970;28;51327;-72
2021/12/10 09:19:42;;;;;;;;;2.00;1.00;;;;;;;;5049612;28;49614;-71
2021/12/10 09:22:08;;;;;;;;;1.50;1.50;;;;;;;;5050049;28;49875;-71
2021/12/10 09:24:34;;;;;;;;;6.25;2.25;;;;;;;;5049979;28;50065;-70
2021/12/10 09:27:00;;;;;;;;;4.00;2.00;;;;;;;;5049392;28;50541;-72
2021/12/10 09:29:26;;;;;;;;;3.00;1.00;;;;;;;;5050100;28;49758;-74
2021/12/10 09:31:52;;;;;;;;;4.25;2.50;;;;;;;;5050398;28;49843;-71
2021/12/10 09:34:17;;;;;;;;;3.00;2.75;;;;;;;;5051441;28;49928;-78
2021/12/10 09:36:44;;;;;;;;;8.00;6.75;;;;;;;;5050397;28;49979;-72
2021/12/10 09:39:10;;;;;;;;;17.25;13.00;;;;;;;;5051503;28;49614;-79
2021/12/10 09:41:35;;;;;;;;;12.00;11.50;;;;;;;;5050232;28;49920;-78
2021/12/10 09:44:01;;;;;;;;;17.75;12.25;;;;;;;;5050050;27;49945;-71
2021/12/10 09:46:26;;;;;;;;;10.25;7.00;;;;;;;;5049595;28;50468;-69
2021/12/10 09:48:52;;;;;;;;;6.00;6.00;;;;;;;;5031421;28;49777;-74
2021/12/10 09:51:21;;;;;;;;;4.75;3.00;;;;;;;;5049843;28;49671;-75
2021/12/10 09:53:48;;;;;;;;;10.25;6.25;;;;;;;;5051758;28;49772;-75
2021/12/10 09:56:16;;;;;;;;;3.00;3.00;;;;;;;;5050159;28;50421;-79
2021/12/10 09:58:41;;;;;;;;;4.75;4.75;;;;;;;;5050259;28;49739;-71
2021/12/10 10:01:09;;;;;;;;;8.50;6.50;;;;;;;;5049964;28;49565;-70
2021/12/10 10:03:37;;;;;;;;;6.50;5.00;;;;;;;;5031527;28;50015;-79
2021/12/10 10:06:03;;;;;;;;;2.25;1.00;;;;;;;;5048672;28;50387;-63
2021/12/10 10:08:28;;;;;;;;;2.00;0.50;;;;;;;;5049021;28;49947;-73
2021/12/10 10:10:56;;;;;;;;;2.00;1.00;;;;;;;;5049269;28;49704;-69
2021/12/10 10:13:26;;;;;;;;;2.50;0.00;;;;;;;;5031404;28;49994;-65
2021/12/10 10:15:56;;;;;;;;;3.00;1.00;;;;;;;;5048951;28;50422;-74
2021/12/10 10:18:22;;;;;;;;;1.00;1.00;;;;;;;;5048896;28;49639;-65
2021/12/10 10:20:49;;;;;;;;;2.00;0.75;;;;;;;;5048655;28;49736;-64
2021/12/10 10:23:15;;;;;;;;;2.50;1.75;;;;;;;;5049190;28;49713;-69
2021/12/10 10:25:43;;;;;;;;;3.00;3.00;;;;;;;;5048866;28;49954;-68
2021/12/10 10:28:11;;;;;;;;;6.00;1.00;;;;;;;;5048910;28;49745;-67
2021/12/10 10:30:38;;;;;;;;;1.75;1.00;;;;;;;;5048981;28;49904;-66
2021/12/10 10:33:05;;;;;;;;;3.00;3.00;;;;;;;;5049056;28;50123;-65
2021/12/10 10:35:35;;;;;;;;;3.00;2.50;;;;;;;;5047679;28;49850;-66
2021/12/10 10:38:01;;;;;;;;;3.00;3.00;;;;;;;;5048758;28;49624;-66
2021/12/10 10:40:28;;;;;;;;;2.50;2.50;;;;;;;;5048154;28;49785;-72
2021/12/10 10:42:54;;;;;;;;;1.00;1.00;;;;;;;;5048910;28;49597;-68
2021/12/10 10:45:24;;;;;;;;;4.25;2.00;;;;;;;;5048529;28;49765;-68
2021/12/10 10:47:50;;;;;;;;;4.00;1.50;;;;;;;;5048514;28;49549;-67
2021/12/10 10:50:20;;;;;;;;;7.50;6.00;;;;;;;;5048619;28;49510;-67
2021/12/10 10:52:47;;;;;;;;;3.00;2.00;;;;;;;;5048448;27;50037;-65
2021/12/10 10:55:12;;;;;;;;;1.50;1.50;;;;;;;;5042239;27;50408;-67
2021/12/10 10:57:58;;;;;;;;;1.25;1.25;;;;;;;;5116121;27;49731;-67
2021/12/10 11:00:32;;;;;;;;;1.25;1.25;;;;;;;;5040600;27;50064;-67
2021/12/10 11:03:03;;;;;;;;;3.00;1.50;;;;;;;;5011919;28;49899;-67
2021/12/10 11:05:28;;;;;;;;;2.00;1.25;;;;;;;;5008583;28;51728;-67
2021/12/10 11:07:56;;;;;;;;;2.50;1.00;;;;;;;;5061544;27;49580;-67
2021/12/10 11:10:27;;;;;;;;;3.25;1.25;;;;;;;;5086592;27;49925;-67
2021/12/10 11:12:52;;;;;;;;;3.50;2.50;;;;;;;;5116759;27;49972;-66
2021/12/10 11:15:18;;;;;;;;;2.75;0.50;;;;;;;;5020598;28;51345;-67
2021/12/10 11:17:45;;;;;;;;;2.00;1.00;;;;;;;;5014247;27;49765;-66
2021/12/10 11:20:19;;;;;;;;;1.00;1.00;;;;;;;;5018422;28;49803;-66
2021/12/10 11:22:50;;;;;;;;;2.00;2.00;;;;;;;;5047557;27;50034;-67
2021/12/10 11:25:18;;;;;;;;;3.75;1.00;;;;;;;;5103210;27;51739;-67
2021/12/10 11:27:44;;;;;;;;;2.00;0.50;;;;;;;;5016963;27;50939;-72
2021/12/10 11:30:12;;;;;;;;;2.00;2.00;;;;;;;;5031670;28;49861;-68
2021/12/10 11:32:37;;;;;;;;;3.00;1.25;;;;;;;;5049463;28;49637;-82
2021/12/10 11:35:23;;;;;;;;;0.75;0.75;;;;;;;;5032704;28;51692;-71
2021/12/10 11:37:56;;;;;;;;;6.50;1.50;;;;;;;;5049369;28;49843;-73
2021/12/10 11:40:40;;;;;;;;;0.75;0.75;;;;;;;;5048358;28;49784;-84
2021/12/10 11:46:03;;;;;;;;;2.00;1.00;;;;;;;;5048096;28;49645;-76
2021/12/10 11:48:30;;;;;;;;;2.50;1.75;;;;;;;;5047773;28;50104;-68
2021/12/10 11:50:57;;;;;;;;;1.00;0.75;;;;;;;;5029870;28;49931;-77
2021/12/10 11:53:23;;;;;;;;;1.75;1.00;;;;;;;;5037039;27;49863;-70
2021/12/10 11:55:59;;;;;;;;;3.25;2.00;;;;;;;;5026755;28;51104;-71
2021/12/10 11:58:25;;;;;;;;;2.00;1.00;;;;;;;;5020500;27;49811;-75
2021/12/10 12:00:50;;;;;;;;;2.00;0.25;;;;;;;;5039690;28;50132;-71
2021/12/10 12:03:16;;;;;;;;;1.00;1.00;;;;;;;;5027761;28;49648;-72
2021/12/10 12:05:42;;;;;;;;;2.75;0.50;;;;;;;;5027422;28;50270;-72
2021/12/10 12:08:13;;;;;;;;;7.00;1.25;;;;;;;;5027088;28;49738;-73
2021/12/10 12:10:42;;;;;;;;;0.00;0.00;;;;;;;;5027601;28;49730;-73
2021/12/10 12:13:22;;;;;;;;;3.75;2.00;;;;;;;;5028855;28;49676;-80
2021/12/10 12:15:50;;;;;;;;;0.00;0.00;;;;;;;;5070223;27;52558;-72
2021/12/10 12:18:22;;;;;;;;;3.50;2.00;;;;;;;;5047144;28;49862;-73
2021/12/10 12:20:47;;;;;;;;;2.00;2.00;;;;;;;;5047576;28;49807;-77
2021/12/10 12:26:21;;;;;;;;;1.00;1.00;;;;;;;;5040027;27;49806;-71
2021/12/10 12:28:48;;;;;;;;;1.00;1.00;;;;;;;;5046261;27;49981;-73
2021/12/10 12:31:13;;;;;;;;;1.75;0.75;;;;;;;;5046733;28;49712;-67
2021/12/10 12:33:50;;;;;;;;;0.50;0.50;;;;;;;;5050394;28;49738;-70
2021/12/10 12:36:16;;;;;;;;;4.25;1.75;;;;;;;;5029411;27;52148;-65
2021/12/10 12:38:43;;;;;;;;;0.75;0.75;;;;;;;;5045487;28;49879;-65
2021/12/10 12:41:11;;;;;;;;;1.00;1.00;;;;;;;;5045053;27;49535;-65
2021/12/10 12:43:38;;;;;;;;;1.50;1.50;;;;;;;;5045853;28;49768;-65
2021/12/10 12:46:07;;;;;;;;;3.50;2.50;;;;;;;;5045442;28;51227;-65
2021/12/10 12:48:33;;;;;;;;;1.00;1.00;;;;;;;;5044381;28;50028;-65
2021/12/10 12:51:06;;;;;;;;;1.00;1.00;;;;;;;;5043907;28;49768;-65
2021/12/10 12:53:34;;;;;;;;;2.50;0.75;;;;;;;;5044356;28;49702;-72
2021/12/10 12:56:07;;;;;;;;;1.00;1.00;;;;;;;;5025975;27;51641;-71
2021/12/10 12:58:38;;;;;;;;;1.25;1.25;;;;;;;;5044119;27;49934;-71
2021/12/10 13:01:09;;;;;;;;;1.50;1.50;;;;;;;;5043576;27;49972;-71
2021/12/10 13:03:55;;;;;;;;;1.25;1.00;;;;;;;;5046448;28;49547;-71
2021/12/10 13:06:20;;;;;;;;;1.25;1.25;;;;;;;;5049396;28;50812;-71
2021/12/10 13:08:53;;;;;;;;;1.00;1.00;;;;;;;;5049617;28;49963;-71
2021/12/10 13:11:20;;;;;;;;;5.00;2.00;;;;;;;;5049615;28;49879;-71
2021/12/10 13:13:52;;;;;;;;;2.00;1.00;;;;;;;;5049907;27;49929;-71
2021/12/10 13:16:49;;;;;;;;;2.50;1.50;;;;;;;;5031699;28;52335;-70
2021/12/10 13:19:18;;;;;;;;;3.00;2.00;;;;;;;;5049706;28;49882;-71
2021/12/10 13:21:45;;;;;;;;;0.00;0.00;;;;;;;;5043489;27;50050;-71
2021/12/10 13:24:12;;;;;;;;;2.25;1.00;;;;;;;;5035073;28;49540;-71
2021/12/10 13:26:37;;;;;;;;;1.25;0.25;;;;;;;;5012234;27;51724;-71
2021/12/10 13:29:02;;;;;;;;;2.00;1.00;;;;;;;;5036095;28;49788;-71
2021/12/10 13:31:27;;;;;;;;;2.00;2.00;;;;;;;;5031469;28;49833;-71
2021/12/10 13:33:53;;;;;;;;;2.00;2.00;;;;;;;;5049889;28;49936;-70
2021/12/10 13:36:18;;;;;;;;;1.00;1.00;;;;;;;;5054238;28;50415;-70
2021/12/10 13:38:51;;;;;;;;;2.00;2.00;;;;;;;;5049130;28;49700;-71
2021/12/10 13:41:18;;;;;;;;;1.75;1.00;;;;;;;;5048953;28;49803;-70
2021/12/10 13:43:52;;;;;;;;;1.00;1.00;;;;;;;;5049227;28;49942;-71
2021/12/10 13:46:18;;;;;;;;;1.00;1.00;;;;;;;;5030971;28;51422;-70
2021/12/10 13:48:43;;;;;;;;;2.00;0.75;;;;;;;;5049246;28;49563;-70
2021/12/10 13:51:13;;;;;;;;;0.00;0.00;;;;;;;;5049191;28;49617;-72
2021/12/10 13:53:38;;;;;;;;;3.75;1.00;;;;;;;;5048691;28;50048;-69
2021/12/10 13:56:06;;;;;;;;;0.75;0.75;;;;;;;;5047404;28;50410;-67
2021/12/10 13:58:49;;;;;;;;;0.00;0.00;;;;;;;;5048098;28;50060;-69
2021/12/10 14:01:19;;;;;;;;;2.75;1.50;;;;;;;;5047476;28;49730;-71
2021/12/10 14:03:50;;;;;;;;;0.25;0.00;;;;;;;;5029103;28;50158;-70
2021/12/10 14:06:34;;;;;;;;;2.75;1.00;;;;;;;;5046771;28;50479;-70
2021/12/10 14:09:09;;;;;;;;;2.50;1.75;;;;;;;;5047890;28;49899;-71
2021/12/10 14:11:51;;;;;;;;;1.00;0.00;;;;;;;;5049277;27;49767;-73
2021/12/10 14:14:17;;;;;;;;;2.25;2.25;;;;;;;;5049235;28;50219;-70
2021/12/10 14:16:46;;;;;;;;;2.75;2.00;;;;;;;;5029865;28;50536;-70
2021/12/10 14:19:27;;;;;;;;;1.00;1.00;;;;;;;;5049166;28;49588;-69
2021/12/10 14:21:52;;;;;;;;;1.50;1.50;;;;;;;;5048769;28;49805;-70
2021/12/10 14:24:29;;;;;;;;;0.00;0.00;;;;;;;;5049092;28;49533;-70
2021/12/10 14:27:08;;;;;;;;;1.25;1.25;;;;;;;;5048496;28;49769;-70
2021/12/10 14:29:33;;;;;;;;;4.25;1.75;;;;;;;;5048970;28;49755;-70
2021/12/10 14:31:59;;;;;;;;;1.00;1.00;;;;;;;;5030671;28;49930;-71
2021/12/10 14:34:24;;;;;;;;;1.00;1.00;;;;;;;;5049056;28;49656;-69
2021/12/10 14:36:58;;;;;;;;;1.75;0.00;;;;;;;;5048226;28;50630;-69
2021/12/10 14:39:24;;;;;;;;;1.50;0.75;;;;;;;;5048745;28;50112;-70
2021/12/10 14:41:50;;;;;;;;;0.00;0.00;;;;;;;;5048967;27;49535;-71
2021/12/10 14:44:15;;;;;;;;;2.00;0.75;;;;;;;;5048975;28;50004;-69
2021/12/10 14:46:41;;;;;;;;;1.00;1.00;;;;;;;;5048515;28;49698;-69
2021/12/10 14:49:19;;;;;;;;;2.75;1.00;;;;;;;;5048536;27;49597;-70
2021/12/10 14:51:46;;;;;;;;;2.00;2.00;;;;;;;;5048502;28;49743;-70
2021/12/10 14:54:15;;;;;;;;;1.00;1.00;;;;;;;;5048694;28;49941;-70
2021/12/10 14:56:47;;;;;;;;;3.25;1.75;;;;;;;;5048208;28;49788;-72
2021/12/10 14:59:15;;;;;;;;;1.25;1.25;;;;;;;;5048743;28;49663;-69
2021/12/10 15:01:48;;;;;;;;;2.00;2.00;;;;;;;;5048355;28;49697;-71
2021/12/10 15:04:19;;;;;;;;;1.75;0.75;;;;;;;;5048954;28;49968;-70